Time;durP1;ratioP1;P1;durP2;ratioP2;P2;SDS_P1;SDS_P2;PMS_P1;PMS_P2;Temp;Humidity;BMP_temperature;BMP_pressure;BME280_temperature;BME280_humidity;BME280_pressure;Samples;Min_cycle;Max_cycle;Signal;HPM_P1;HPM_P2
2022/10/28 00:02:00;;;;;;;12.05;8.57;;;;;;;15.36;72.14;100990.03;10211311;28;20142;-60
2022/10/28 00:07:02;;;;;;;18.65;8.48;;;;;;;15.31;72.24;100986.25;10216083;28;20066;-61
2022/10/28 00:12:03;;;;;;;15.45;8.52;;;;;;;15.25;72.15;100982.44;10218348;28;20052;-61
2022/10/28 00:17:04;;;;;;;13.63;6.35;;;;;;;15.06;72.72;100994.72;10217205;29;20055;-61
2022/10/28 00:22:06;;;;;;;18.00;6.63;;;;;;;14.93;73.24;101000.81;10220737;28;20056;-61
2022/10/28 00:27:07;;;;;;;16.27;6.13;;;;;;;15.01;73.25;100992.56;10220036;28;20078;-61
2022/10/28 00:32:09;;;;;;;16.25;6.80;;;;;;;15.10;72.84;100987.88;10216957;28;20058;-61
2022/10/28 00:37:10;;;;;;;13.60;6.53;;;;;;;15.13;72.64;100997.50;10224234;28;20126;-61
2022/10/28 00:42:16;;;;;;;11.00;6.60;;;;;;;15.10;72.67;101009.53;10202435;28;20063;-61
2022/10/28 00:47:24;;;;;;;13.37;7.03;;;;;;;15.09;72.48;100997.06;10209489;28;20134;-61
2022/10/28 00:52:29;;;;;;;14.05;5.45;;;;;;;15.04;72.47;100988.66;10205631;28;20155;-61
2022/10/28 00:57:34;;;;;;;12.88;6.13;;;;;;;14.96;72.59;100988.75;10209573;28;20125;-61
2022/10/28 01:02:43;;;;;;;7.85;5.28;;;;;;;14.92;72.55;100990.16;10222717;28;20076;-61
2022/10/28 01:07:44;;;;;;;10.02;5.65;;;;;;;14.92;72.61;100993.69;10206418;29;20405;-62
2022/10/28 01:12:59;;;;;;;13.75;5.03;;;;;;;14.94;72.65;100985.41;10217485;28;20057;-61
2022/10/28 01:18:31;;;;;;;9.60;5.18;;;;;;;14.94;72.65;100983.53;10205821;29;20395;-61
2022/10/28 01:23:44;;;;;;;12.60;4.90;;;;;;;14.98;72.65;100968.56;10211992;28;20093;-61
2022/10/28 01:29:14;;;;;;;11.77;4.05;;;;;;;14.97;72.70;100972.31;10213898;28;20055;-61
2022/10/28 01:34:53;;;;;;;9.60;4.68;;;;;;;14.86;73.05;100964.69;10187945;29;20061;-61
2022/10/28 01:40:07;;;;;;;22.70;13.02;;;;;;;14.95;72.89;100976.22;10214583;29;20067;-61
2022/10/28 01:45:16;;;;;;;14.07;9.27;;;;;;;14.92;73.42;100969.34;10218537;28;20139;-61
2022/10/28 01:50:23;;;;;;;14.63;9.00;;;;;;;15.08;73.14;100963.69;10208149;29;20679;-61
2022/10/28 01:55:39;;;;;;;13.05;8.93;;;;;;;15.18;73.03;100952.56;10211727;28;20048;-61
2022/10/28 02:00:43;;;;;;;9.63;5.93;;;;;;;15.27;72.89;100967.66;10217168;28;20043;-61
2022/10/28 02:05:45;;;;;;;12.38;5.53;;;;;;;15.32;72.73;100950.00;10210415;28;20051;-61
2022/10/28 02:11:01;;;;;;;8.90;4.63;;;;;;;15.35;72.81;100957.75;10212175;28;20539;-61
2022/10/28 02:16:29;;;;;;;7.57;5.60;;;;;;;15.37;72.75;100947.56;10215226;28;20151;-61
2022/10/28 02:22:14;;;;;;;11.95;5.32;;;;;;;15.35;72.64;100939.63;10200269;29;20142;-61
2022/10/28 02:27:29;;;;;;;8.98;5.20;;;;;;;15.41;72.55;100927.19;10203244;28;20126;-61
2022/10/28 02:32:41;;;;;;;8.85;5.85;;;;;;;15.34;73.06;100939.81;10218613;28;20048;-61
2022/10/28 02:37:45;;;;;;;8.95;5.13;;;;;;;15.41;72.92;100938.84;10215813;29;20053;-61
2022/10/28 02:42:51;;;;;;;10.25;5.88;;;;;;;15.52;72.56;100923.97;10203346;28;20051;-61
2022/10/28 02:47:57;;;;;;;14.83;6.73;;;;;;;15.32;73.42;100940.00;10209874;28;20665;-61
2022/10/28 02:53:03;;;;;;;11.70;6.40;;;;;;;15.38;73.46;100935.69;10221460;28;20048;-62
2022/10/28 02:58:05;;;;;;;28.00;7.68;;;;;;;15.44;73.40;100924.94;10215886;28;20458;-62
2022/10/28 03:03:06;;;;;;;10.30;6.82;;;;;;;15.47;73.32;100912.84;10211124;28;20126;-61
2022/10/28 03:08:08;;;;;;;11.80;5.25;;;;;;;15.48;73.41;100917.22;10219665;28;20046;-61
2022/10/28 03:13:09;;;;;;;10.77;5.40;;;;;;;15.48;73.70;100919.94;10212302;28;20052;-62
2022/10/28 03:18:10;;;;;;;13.70;6.32;;;;;;;15.34;74.10;100928.97;10206471;28;20071;-62
2022/10/28 03:23:12;;;;;;;11.23;5.13;;;;;;;15.49;73.95;100924.34;10203661;29;20498;-61
2022/10/28 03:28:13;;;;;;;12.52;5.38;;;;;;;15.66;73.64;100916.78;10207303;28;20459;-61
2022/10/28 03:33:15;;;;;;;11.80;5.85;;;;;;;15.70;73.61;100926.19;10214480;28;20184;-61
2022/10/28 03:38:16;;;;;;;13.38;5.88;;;;;;;15.59;74.22;100927.53;10202877;28;20041;-62
2022/10/28 03:43:17;;;;;;;12.00;6.18;;;;;;;15.72;73.96;100937.69;10215321;28;20589;-63
2022/10/28 03:48:19;;;;;;;12.43;5.53;;;;;;;15.64;74.43;100967.63;10211687;28;20051;-63
2022/10/28 03:53:21;;;;;;;10.77;6.47;;;;;;;15.62;74.82;100937.16;10206449;28;20483;-63
2022/10/28 03:58:27;;;;;;;;;;;;;;;15.66;74.66;100923.03;10203821;28;20134;-63
2022/10/28 04:03:29;;;;;;;19.35;8.60;;;;;;;15.67;74.75;100875.91;10215218;28;19958;-63
2022/10/28 04:08:30;;;;;;;20.80;9.57;;;;;;;15.64;75.42;100849.22;10208526;28;20047;-62
2022/10/28 04:13:31;;;;;;;15.77;7.35;;;;;;;15.58;76.41;100931.31;10207572;28;20046;-62
2022/10/28 04:18:34;;;;;;;24.45;8.88;;;;;;;15.64;76.75;100905.31;10216485;28;20139;-62
2022/10/28 04:23:35;;;;;;;21.83;9.02;;;;;;;15.78;76.64;100900.84;10208103;28;20082;-62
2022/10/28 04:28:37;;;;;;;18.70;8.80;;;;;;;15.97;76.13;100858.63;10214798;29;20142;-62
2022/10/28 04:33:38;;;;;;;15.65;8.00;;;;;;;16.03;76.10;100857.84;10205804;28;20041;-62
2022/10/28 04:38:40;;;;;;;19.27;8.02;;;;;;;16.08;76.19;100871.66;10207281;28;20142;-62
2022/10/28 04:43:41;;;;;;;15.30;7.47;;;;;;;16.15;75.83;100877.09;10217752;29;20555;-62
2022/10/28 04:48:42;;;;;;;17.23;7.68;;;;;;;16.29;75.62;100873.44;10218274;28;20619;-62
2022/10/28 04:53:44;;;;;;;18.13;8.52;;;;;;;16.32;75.54;100867.59;10203165;29;20052;-63
2022/10/28 04:58:46;;;;;;;21.08;7.75;;;;;;;16.36;75.20;100868.88;10213447;28;20142;-62
2022/10/28 05:03:47;;;;;;;16.30;8.65;;;;;;;16.34;75.25;100859.25;10217242;28;20134;-62
2022/10/28 05:08:48;;;;;;;21.50;9.25;;;;;;;16.34;75.27;100862.81;10217400;28;20126;-62
2022/10/28 05:13:51;;;;;;;18.95;8.77;;;;;;;16.31;74.70;100865.06;10207483;28;20048;-62
2022/10/28 05:18:53;;;;;;;19.00;9.02;;;;;;;16.10;75.40;100866.84;10219077;28;20593;-64
2022/10/28 05:23:54;;;;;;;16.35;9.32;;;;;;;15.98;76.20;100852.19;10212959;28;20063;-62
2022/10/28 05:28:56;;;;;;;20.45;9.45;;;;;;;16.10;76.44;100857.91;10207670;28;20547;-62
2022/10/28 05:33:57;;;;;;;19.65;9.15;;;;;;;16.26;75.74;100863.81;10216723;28;20146;-62
2022/10/28 05:38:58;;;;;;;17.52;8.13;;;;;;;16.31;75.48;100867.78;10210841;28;20409;-62
2022/10/28 05:44:00;;;;;;;16.45;8.48;;;;;;;16.30;75.06;100860.72;10208522;28;20073;-62
2022/10/28 05:49:01;;;;;;;24.48;9.98;;;;;;;16.22;75.01;100859.00;10214506;28;20054;-62
2022/10/28 05:54:03;;;;;;;13.10;8.27;;;;;;;16.11;75.21;100859.56;10210503;28;20138;-62
2022/10/28 05:59:05;;;;;;;15.18;7.65;;;;;;;16.09;75.24;100864.34;10220037;28;20463;-62
2022/10/28 06:04:07;;;;;;;17.83;7.70;;;;;;;16.01;75.27;100863.44;10216728;28;20706;-62
2022/10/28 06:09:08;;;;;;;23.58;7.85;;;;;;;16.02;75.22;100867.84;10209918;28;20585;-63
2022/10/28 06:14:09;;;;;;;14.93;7.22;;;;;;;16.10;75.39;100866.03;10207110;28;20410;-63
2022/10/28 06:19:11;;;;;;;16.33;8.85;;;;;;;16.05;75.16;100872.88;10208145;28;20483;-63
2022/10/28 06:24:13;;;;;;;14.35;7.10;;;;;;;16.06;75.45;100884.56;10215895;28;20099;-64
2022/10/28 06:29:15;;;;;;;12.77;6.82;;;;;;;16.13;75.64;100876.47;10207395;28;20043;-63
2022/10/28 06:34:16;;;;;;;12.98;6.90;;;;;;;16.23;75.20;100871.50;10211589;28;20615;-63
2022/10/28 06:39:18;;;;;;;17.08;7.53;;;;;;;16.32;75.05;100872.19;10203448;29;20549;-63
2022/10/28 06:44:19;;;;;;;16.55;7.43;;;;;;;16.38;74.99;100872.22;10195551;28;20044;-63
2022/10/28 06:49:20;;;;;;;13.73;6.90;;;;;;;16.47;74.85;100883.75;10208006;29;20080;-63
2022/10/28 06:54:22;;;;;;;15.23;7.43;;;;;;;16.50;74.89;100891.47;10204301;28;20074;-63
2022/10/28 06:59:23;;;;;;;16.65;7.65;;;;;;;16.56;74.99;100882.53;10208715;28;20119;-63
2022/10/28 07:04:25;;;;;;;19.27;9.27;;;;;;;16.63;75.05;100893.44;10211128;29;20171;-63
2022/10/28 07:09:26;;;;;;;19.08;7.40;;;;;;;16.76;75.08;100890.75;10210382;28;20126;-63
2022/10/28 07:14:28;;;;;;;21.20;8.60;;;;;;;16.84;74.83;100893.34;10213775;28;20047;-63
2022/10/28 07:19:29;;;;;;;17.05;7.38;;;;;;;16.91;74.76;100896.06;10209710;28;20442;-63
2022/10/28 07:24:31;;;;;;;9.85;7.00;;;;;;;16.97;74.55;100899.84;10205974;28;20061;-64
2022/10/28 07:29:32;;;;;;;13.48;7.18;;;;;;;17.04;74.82;100911.53;10200142;28;20082;-63
2022/10/28 07:34:33;;;;;;;15.45;7.40;;;;;;;17.09;74.65;100910.94;10206751;28;20051;-63
2022/10/28 07:39:35;;;;;;;18.92;7.45;;;;;;;17.17;74.78;100919.72;10201320;29;20050;-62
2022/10/28 07:44:38;;;;;;;14.85;7.22;;;;;;;17.21;74.78;100915.56;10210598;28;20047;-62
2022/10/28 07:49:39;;;;;;;18.02;8.00;;;;;;;17.29;74.57;100919.13;10199702;28;20044;-62
2022/10/28 07:54:41;;;;;;;17.17;7.10;;;;;;;17.34;74.64;100922.09;10203808;28;20082;-62
2022/10/28 07:59:42;;;;;;;11.55;7.20;;;;;;;17.38;74.61;100926.88;10197071;28;20131;-62
2022/10/28 08:04:43;;;;;;;13.82;7.07;;;;;;;17.46;74.59;100914.97;10215025;28;20115;-62
2022/10/28 08:09:45;;;;;;;15.15;6.55;;;;;;;17.58;74.48;100920.63;10212363;28;20785;-62
2022/10/28 08:14:46;;;;;;;16.42;7.15;;;;;;;17.69;74.67;100911.84;10208447;28;20055;-62
2022/10/28 08:19:47;;;;;;;12.18;7.30;;;;;;;17.79;74.24;100923.16;10209174;28;20160;-62
2022/10/28 08:24:49;;;;;;;17.45;7.30;;;;;;;17.93;74.04;100926.75;10216650;28;20102;-62
2022/10/28 08:29:52;;;;;;;13.95;7.13;;;;;;;18.00;74.05;100929.44;10207180;28;20458;-63
2022/10/28 08:34:53;;;;;;;13.80;6.78;;;;;;;18.15;74.06;100927.34;10214738;28;20075;-62
2022/10/28 08:39:54;;;;;;;15.27;6.38;;;;;;;18.27;73.71;100921.25;10208280;28;20043;-62
2022/10/28 08:45:12;;;;;;;16.27;6.93;;;;;;;18.38;73.57;100912.41;10208809;28;20131;-62
2022/10/28 08:50:19;;;;;;;15.02;7.70;;;;;;;18.50;73.59;100915.31;10222431;28;20111;-63
2022/10/28 08:55:27;;;;;;;18.08;8.25;;;;;;;18.65;73.29;100915.06;10210526;28;20047;-62
2022/10/28 09:00:31;;;;;;;15.57;7.78;;;;;;;18.76;72.89;100914.34;10208679;29;20102;-63
2022/10/28 09:05:37;;;;;;;15.75;8.63;;;;;;;18.83;72.86;100916.03;10221884;28;20050;-62
2022/10/28 09:10:53;;;;;;;17.00;9.02;;;;;;;18.97;72.65;100914.09;10220302;28;20150;-62
2022/10/28 09:16:22;;;;;;;14.85;8.20;;;;;;;19.05;72.70;100913.00;10211880;28;20812;-62
2022/10/28 09:21:36;;;;;;;19.00;8.88;;;;;;;19.15;72.48;100917.97;10210926;29;20139;-62
2022/10/28 09:27:12;;;;;;;14.75;8.82;;;;;;;19.28;72.37;100920.63;10208789;28;20063;-62
2022/10/28 09:32:28;;;;;;;15.55;9.88;;;;;;;19.42;72.04;100918.66;10223192;28;20091;-62
2022/10/28 09:37:36;;;;;;;21.13;9.82;;;;;;;19.52;71.93;100926.34;10220897;28;20162;-62
2022/10/28 09:43:00;;;;;;;16.38;7.75;;;;;;;19.70;71.62;100923.66;10209461;28;20068;-62
2022/10/28 09:48:21;;;;;;;12.90;6.15;;;;;;;19.92;70.82;100910.50;10213060;28;20138;-62
2022/10/28 09:53:42;;;;;;;14.95;5.80;;;;;;;20.16;70.29;100902.50;10205271;29;20043;-62
2022/10/28 09:58:46;;;;;;;11.32;4.95;;;;;;;20.34;69.55;100899.78;10216326;29;20147;-62
2022/10/28 10:03:49;;;;;;;18.25;5.55;;;;;;;20.47;68.75;100903.44;10212032;29;20088;-62
2022/10/28 10:08:54;;;;;;;9.95;4.57;;;;;;;20.74;67.82;100902.06;10199927;28;20044;-62
2022/10/28 10:13:58;;;;;;;12.10;4.03;;;;;;;20.93;66.69;100919.28;10214716;29;20078;-62
2022/10/28 10:19:03;;;;;;;13.23;3.95;;;;;;;21.04;65.45;100912.19;10207126;28;20055;-62
2022/10/28 10:24:21;;;;;;;9.18;3.45;;;;;;;21.18;65.24;100910.91;10210327;28;20071;-62
2022/10/28 10:29:23;;;;;;;10.80;3.15;;;;;;;21.35;64.33;100910.28;10207125;28;20056;-63
2022/10/28 10:34:26;;;;;;;14.75;3.25;;;;;;;21.49;63.35;100900.00;10221250;28;20462;-62
2022/10/28 10:39:35;;;;;;;9.88;3.60;;;;;;;21.59;62.63;100898.34;10211649;28;20064;-62
2022/10/28 10:44:36;;;;;;;13.23;4.50;;;;;;;21.65;62.63;100893.00;10207975;28;20142;-62
2022/10/28 10:49:38;;;;;;;11.40;3.22;;;;;;;21.89;61.87;100891.94;10205386;28;20540;-60
2022/10/28 10:54:44;;;;;;;9.65;3.17;;;;;;;21.94;61.10;100889.31;10207226;28;20058;-60
2022/10/28 10:59:48;;;;;;;13.88;3.22;;;;;;;22.13;60.59;100886.44;10207727;28;20517;-60
2022/10/28 11:04:52;;;;;;;9.60;3.20;;;;;;;22.26;60.18;100874.44;10202594;29;20078;-60
2022/10/28 11:09:54;;;;;;;7.38;2.33;;;;;;;22.40;58.70;100859.41;10208274;28;20130;-60
2022/10/28 11:15:00;;;;;;;7.65;3.15;;;;;;;22.55;58.04;100856.13;10203573;28;20139;-62
2022/10/28 11:20:37;;;;;;;5.90;2.25;;;;;;;22.76;57.45;100852.72;10171279;29;1053205;-62
2022/10/28 11:25:45;;;;;;;7.32;1.83;;;;;;;23.04;56.74;100847.50;10208473;29;20143;-62
2022/10/28 11:31:11;;;;;;;7.97;1.58;;;;;;;23.23;55.91;100843.47;10206138;28;20678;-62
2022/10/28 11:36:25;;;;;;;9.52;2.47;;;;;;;23.36;55.14;100847.78;10208212;28;20074;-62
2022/10/28 11:41:32;;;;;;;7.93;1.58;;;;;;;23.50;55.02;100832.66;10208355;28;20111;-62
2022/10/28 11:46:42;;;;;;;8.95;1.85;;;;;;;23.63;54.16;100822.41;10209697;28;20146;-62
2022/10/28 11:52:02;;;;;;;11.27;1.95;;;;;;;23.71;54.10;100819.22;10210156;28;20056;-62
2022/10/28 11:57:12;;;;;;;8.88;2.00;;;;;;;23.93;53.73;100809.16;10222305;28;20607;-62
2022/10/28 12:02:52;;;;;;;8.60;1.95;;;;;;;24.01;53.64;100810.63;10205220;28;20832;-62
2022/10/28 12:08:13;;;;;;;13.75;2.65;;;;;;;24.08;52.97;100807.69;10205918;29;20595;-62
2022/10/28 12:13:48;;;;;;;5.50;1.80;;;;;;;24.05;52.61;100809.06;10206790;28;20058;-62
2022/10/28 12:18:57;;;;;;;5.75;1.38;;;;;;;24.17;52.41;100799.84;10204311;28;20052;-63
2022/10/28 12:23:59;;;;;;;7.95;1.55;;;;;;;24.31;51.79;100790.97;10203597;28;20138;-60
2022/10/28 12:29:04;;;;;;;16.13;1.80;;;;;;;24.41;51.53;100773.75;10201485;28;20112;-60
2022/10/28 12:34:11;;;;;;;10.27;1.83;;;;;;;24.50;50.37;100783.22;10212628;28;20047;-60
2022/10/28 12:39:25;;;;;;;14.75;2.03;;;;;;;24.70;49.95;100768.03;10202437;29;20174;-60
2022/10/28 12:44:27;;;;;;;8.35;1.95;;;;;;;24.78;49.54;100770.31;10210081;28;20590;-60
2022/10/28 12:49:45;;;;;;;8.18;1.23;;;;;;;24.83;49.30;100775.88;10211016;28;20111;-61
2022/10/28 12:55:21;;;;;;;7.20;1.40;;;;;;;24.88;48.94;100767.66;10222451;28;20396;-61
2022/10/28 13:00:30;;;;;;;5.22;1.33;;;;;;;24.80;48.68;100748.03;10181745;28;20470;-61
2022/10/28 13:05:44;;;;;;;8.30;1.17;;;;;;;24.98;48.18;100757.81;10215539;28;20134;-60
2022/10/28 13:10:56;;;;;;;16.95;6.00;;;;;;;24.97;47.76;100765.25;10203196;28;20114;-61
2022/10/28 13:16:14;;;;;;;8.05;0.90;;;;;;;25.05;47.51;100756.53;10210408;29;20135;-60
2022/10/28 13:21:49;;;;;;;10.07;2.15;;;;;;;25.19;47.58;100767.09;10215422;28;20058;-60
2022/10/28 13:26:51;;;;;;;7.28;0.98;;;;;;;25.31;47.37;100765.00;10221805;28;20138;-60
2022/10/28 13:31:54;;;;;;;8.50;1.70;;;;;;;25.23;48.08;100771.81;10210050;28;20075;-61
2022/10/28 13:36:58;;;;;;;9.35;1.50;;;;;;;25.15;47.75;100761.28;10211461;28;20078;-60
2022/10/28 13:42:11;;;;;;;8.82;1.55;;;;;;;25.30;47.45;100750.41;10223023;28;20043;-60
2022/10/28 13:47:13;;;;;;;8.52;1.83;;;;;;;25.34;47.36;100747.97;10210302;28;20071;-60
2022/10/28 13:52:19;;;;;;;12.85;2.22;;;;;;;25.13;47.45;100753.28;10211300;29;20130;-60
2022/10/28 13:57:28;;;;;;;12.55;1.90;;;;;;;25.06;47.57;100757.34;10211100;28;20110;-60
2022/10/28 14:02:45;;;;;;;9.38;1.92;;;;;;;24.93;48.28;100755.88;10216661;28;20384;-61
2022/10/28 14:07:53;;;;;;;13.77;2.72;;;;;;;24.68;48.99;100749.03;10215962;29;20510;-61
2022/10/28 14:13:13;;;;;;;8.48;2.08;;;;;;;24.76;48.83;100744.16;10213032;28;20055;-61
2022/10/28 14:18:18;;;;;;;7.22;2.10;;;;;;;24.73;49.25;100746.34;10211653;28;20055;-60
2022/10/28 14:23:42;;;;;;;11.45;1.67;;;;;;;24.59;49.93;100752.53;10211007;28;20524;-60
2022/10/28 14:28:43;;;;;;;6.43;1.73;;;;;;;24.61;50.35;100758.59;10221868;28;20213;-61
2022/10/28 14:33:54;;;;;;;8.70;2.35;;;;;;;24.58;50.33;100756.38;10208023;28;20468;-61
2022/10/28 14:39:34;;;;;;;8.45;2.67;;;;;;;24.63;50.41;100748.19;10217927;28;20472;-61
2022/10/28 14:44:58;;;;;;;10.88;2.47;;;;;;;24.65;50.60;100754.25;10200916;28;20141;-60
2022/10/28 14:50:00;;;;;;;16.80;2.50;;;;;;;24.71;50.49;100748.53;10198672;28;20096;-60
2022/10/28 14:55:05;;;;;;;11.07;2.70;;;;;;;24.64;50.63;100749.81;10202356;28;20093;-61
2022/10/28 15:00:15;;;;;;;6.88;1.77;;;;;;;24.57;51.29;100750.03;10206755;29;20567;-60
2022/10/28 15:05:19;;;;;;;16.83;2.75;;;;;;;24.49;51.22;100745.81;10215359;28;20075;-60
2022/10/28 15:10:30;;;;;;;10.95;2.10;;;;;;;24.46;52.12;100745.50;10208100;29;20056;-61
2022/10/28 15:15:35;;;;;;;10.32;2.50;;;;;;;24.32;52.14;100759.63;10205599;28;20074;-60
2022/10/28 15:20:37;;;;;;;7.83;1.80;;;;;;;24.24;52.23;100751.84;10215718;28;20130;-62
2022/10/28 15:25:38;;;;;;;9.15;2.85;;;;;;;24.17;52.58;100747.63;10203384;28;20043;-62
2022/10/28 15:30:41;;;;;;;12.82;3.75;;;;;;;24.03;52.60;100745.31;10215624;28;20079;-62
2022/10/28 15:35:47;;;;;;;8.77;2.30;;;;;;;23.89;53.49;100768.72;10203385;29;20433;-62
2022/10/28 15:40:49;;;;;;;10.85;2.10;;;;;;;23.80;53.88;100759.28;10209904;28;20134;-62
2022/10/28 15:45:50;;;;;;;13.45;1.92;;;;;;;23.61;54.21;100776.00;10205174;28;20052;-60
2022/10/28 15:51:11;;;;;;;13.95;3.78;;;;;;;23.34;54.75;100754.75;10210228;29;20159;-60
2022/10/28 15:56:13;;;;;;;11.48;2.63;;;;;;;23.35;54.79;100761.06;10209110;28;20113;-60
2022/10/28 16:01:50;;;;;;;10.93;2.72;;;;;;;23.24;54.92;100764.72;10215147;28;20126;-61
2022/10/28 16:06:56;;;;;;;10.57;2.67;;;;;;;23.11;55.33;100763.16;10153375;29;20453;-61
2022/10/28 16:12:02;;;;;;;11.38;4.35;;;;;;;22.90;55.76;100768.25;10204417;28;20047;-63
2022/10/28 16:17:08;;;;;;;33.65;12.18;;;;;;;22.81;55.98;100772.50;10208846;28;20103;-63
2022/10/28 16:22:13;;;;;;;13.97;5.37;;;;;;;22.68;56.04;100775.53;10207006;28;20130;-63
2022/10/28 16:27:23;;;;;;;19.10;7.63;;;;;;;22.53;56.45;100776.94;10210040;29;20530;-63
2022/10/28 16:32:33;;;;;;;13.05;4.47;;;;;;;22.32;57.09;100789.38;10211712;28;20046;-63
2022/10/28 16:37:36;;;;;;;12.25;4.95;;;;;;;22.13;57.48;100796.06;10214389;28;20051;-63
2022/10/28 16:42:45;;;;;;;27.45;7.43;;;;;;;21.94;58.02;100795.41;10211270;29;20497;-63
2022/10/28 16:47:47;;;;;;;17.23;6.95;;;;;;;21.74;58.79;100795.78;10210755;28;20060;-63
2022/10/28 16:52:48;;;;;;;20.77;8.75;;;;;;;21.54;59.28;100797.00;10208773;29;20134;-64
2022/10/28 16:57:49;;;;;;;21.92;8.70;;;;;;;21.36;60.01;100797.88;10211569;29;20083;-62
2022/10/28 17:02:52;;;;;;;15.82;6.95;;;;;;;21.18;60.56;100796.09;10211259;28;20051;-63
2022/10/28 17:07:54;;;;;;;17.05;6.35;;;;;;;21.04;60.88;100800.09;10216684;28;20461;-64
2022/10/28 17:12:56;;;;;;;17.52;7.20;;;;;;;20.88;61.32;100803.53;10222155;28;20047;-63
2022/10/28 17:17:58;;;;;;;16.58;6.47;;;;;;;20.73;61.82;100793.81;10212843;29;20167;-63
2022/10/28 17:23:00;;;;;;;16.05;6.07;;;;;;;20.54;62.00;100794.94;10206922;29;20162;-64
2022/10/28 17:28:01;;;;;;;16.17;6.15;;;;;;;20.39;62.38;100811.72;10209093;28;20134;-63
2022/10/28 17:33:03;;;;;;;12.07;5.25;;;;;;;20.26;62.86;100817.34;10213160;28;20413;-63
2022/10/28 17:38:04;;;;;;;19.05;5.50;;;;;;;20.15;63.24;100822.50;10215351;29;20142;-63
2022/10/28 17:43:06;;;;;;;21.73;5.40;;;;;;;20.06;63.40;100833.94;10214006;28;20154;-63
2022/10/28 17:48:07;;;;;;;23.77;5.57;;;;;;;19.98;63.63;100837.81;10211254;29;20146;-63
2022/10/28 17:53:09;;;;;;;14.88;5.32;;;;;;;19.86;64.31;100842.34;10213704;28;20566;-63
2022/10/28 17:58:10;;;;;;;17.80;7.18;;;;;;;19.72;64.50;100839.75;10207641;29;20075;-63
2022/10/28 18:03:12;;;;;;;23.58;4.95;;;;;;;19.60;64.84;100844.25;10215597;29;20069;-63
2022/10/28 18:08:13;;;;;;;19.55;7.05;;;;;;;19.49;65.01;100854.00;10199758;28;20071;-63
2022/10/28 18:13:15;;;;;;;14.95;6.38;;;;;;;19.41;65.37;100854.25;10208594;29;20162;-63
2022/10/28 18:18:16;;;;;;;18.20;6.75;;;;;;;19.28;65.87;100860.66;10217467;28;20073;-63
2022/10/28 18:23:17;;;;;;;12.02;6.78;;;;;;;19.18;65.96;100861.13;10207983;28;20131;-63
2022/10/28 18:28:21;;;;;;;17.75;6.55;;;;;;;19.10;66.06;100858.69;10202335;28;20443;-63
2022/10/28 18:33:23;;;;;;;18.63;6.10;;;;;;;19.01;66.40;100866.28;10216557;29;20171;-64
2022/10/28 18:38:24;;;;;;;16.30;6.22;;;;;;;18.95;66.68;100856.25;10199145;29;20063;-63
2022/10/28 18:43:26;;;;;;;18.85;6.25;;;;;;;18.90;66.79;100858.81;10207597;28;20061;-63
2022/10/28 18:48:28;;;;;;;11.50;7.15;;;;;;;18.85;66.97;100857.78;10210629;28;20070;-63
2022/10/28 18:53:30;;;;;;;15.70;5.75;;;;;;;18.80;67.21;100862.00;10202809;28;20112;-63
2022/10/28 18:58:31;;;;;;;12.13;6.18;;;;;;;18.74;67.58;100849.22;10202890;29;20090;-63
2022/10/28 19:03:33;;;;;;;13.40;5.57;;;;;;;18.75;67.67;100860.94;10207605;29;20079;-63
2022/10/28 19:08:34;;;;;;;12.63;4.53;;;;;;;18.82;67.74;100861.78;10206088;28;20054;-63
2022/10/28 19:13:38;;;;;;;12.88;5.20;;;;;;;18.85;67.87;100846.91;10209792;28;20048;-63
2022/10/28 19:18:39;;;;;;;17.27;4.13;;;;;;;18.92;68.05;100843.09;10211498;28;20122;-63
2022/10/28 19:23:42;;;;;;;13.65;4.43;;;;;;;18.99;68.01;100843.84;10202958;28;20043;-63
2022/10/28 19:28:45;;;;;;;16.40;5.22;;;;;;;19.08;68.03;100858.06;10203112;28;21162;-63
2022/10/28 19:33:48;;;;;;;11.27;4.03;;;;;;;19.15;68.03;100856.13;10206360;29;20138;-63
2022/10/28 19:38:54;;;;;;;14.18;5.15;;;;;;;19.21;67.96;100855.25;10200930;29;20052;-63
2022/10/28 19:44:00;;;;;;;13.18;5.60;;;;;;;19.28;67.84;100857.09;10208250;28;20072;-63
2022/10/28 19:49:04;;;;;;;17.77;5.50;;;;;;;19.30;67.95;100868.63;10209453;28;20075;-63
2022/10/28 19:54:11;;;;;;;14.25;5.15;;;;;;;19.33;68.18;100863.56;10211775;28;20494;-63
2022/10/28 19:59:12;;;;;;;17.85;4.70;;;;;;;19.33;68.16;100871.75;10217240;28;20477;-63
2022/10/28 20:04:13;;;;;;;16.70;5.25;;;;;;;19.39;67.97;100876.31;10211671;29;20442;-63
2022/10/28 20:09:15;;;;;;;26.13;7.28;;;;;;;19.48;68.09;100876.03;10215232;28;20143;-63
2022/10/28 20:14:16;;;;;;;16.70;7.90;;;;;;;19.51;67.77;100878.28;10217766;29;20154;-63
2022/10/28 20:19:18;;;;;;;22.33;8.85;;;;;;;19.49;67.82;100889.44;10223995;28;20513;-63
2022/10/28 20:24:19;;;;;;;15.80;5.82;;;;;;;19.54;67.92;100899.69;10216785;29;20174;-63
2022/10/28 20:29:20;;;;;;;12.73;5.68;;;;;;;19.54;67.83;100895.06;10219683;28;20044;-63
2022/10/28 20:34:22;;;;;;;13.02;4.38;;;;;;;19.50;68.04;100906.63;10210693;29;20060;-63
2022/10/28 20:39:24;;;;;;;14.15;4.93;;;;;;;19.53;68.03;100908.91;10208227;29;20143;-63
2022/10/28 20:44:26;;;;;;;12.60;6.53;;;;;;;19.54;67.96;100908.69;10211327;29;20533;-63
2022/10/28 20:49:27;;;;;;;11.68;5.57;;;;;;;19.49;67.83;100913.13;10212681;28;20159;-63
2022/10/28 20:54:29;;;;;;;14.90;4.90;;;;;;;19.46;67.99;100914.41;10209689;28;20044;-63
2022/10/28 20:59:30;;;;;;;26.85;8.20;;;;;;;19.41;68.14;100906.91;10217002;29;20070;-63
2022/10/28 21:04:32;;;;;;;17.48;5.70;;;;;;;19.21;68.45;100912.50;10210589;28;20469;-63
2022/10/28 21:09:33;;;;;;;15.73;5.55;;;;;;;19.16;68.71;100904.13;10210493;29;20074;-63
2022/10/28 21:14:34;;;;;;;15.98;5.20;;;;;;;19.17;68.51;100891.34;10209951;28;20520;-63
2022/10/28 21:19:36;;;;;;;10.68;5.30;;;;;;;19.14;68.53;100895.34;10220111;29;20146;-63
2022/10/28 21:24:37;;;;;;;14.10;4.80;;;;;;;19.11;68.15;100909.41;10214275;29;20130;-63
2022/10/28 21:29:38;;;;;;;15.55;5.25;;;;;;;19.07;68.45;100904.59;10217021;29;20087;-63
2022/10/28 21:34:40;;;;;;;15.70;5.32;;;;;;;18.96;68.51;100919.78;10209433;29;20056;-63
2022/10/28 21:39:41;;;;;;;11.32;4.50;;;;;;;18.85;68.61;100923.16;10208723;28;20457;-63
2022/10/28 21:44:43;;;;;;;13.98;5.25;;;;;;;18.75;68.68;100929.88;10214077;29;20106;-63
2022/10/28 21:49:45;;;;;;;12.30;4.90;;;;;;;18.62;68.91;100949.84;10220105;29;20142;-63
2022/10/28 21:54:46;;;;;;;20.48;6.45;;;;;;;18.49;69.14;100932.72;10193473;29;20060;-63
2022/10/28 21:59:48;;;;;;;17.25;6.38;;;;;;;18.38;69.39;100937.75;10216415;29;20089;-63
2022/10/28 22:04:50;;;;;;;13.43;5.13;;;;;;;18.37;69.37;100935.25;10207134;28;20107;-63
2022/10/28 22:09:51;;;;;;;15.90;6.65;;;;;;;18.30;69.36;100940.69;10202619;28;20146;-63
2022/10/28 22:14:52;;;;;;;13.38;6.15;;;;;;;18.26;69.61;100949.50;10212377;29;20079;-64
2022/10/28 22:19:54;;;;;;;20.67;6.72;;;;;;;18.21;69.82;100952.88;10204626;29;20082;-63
2022/10/28 22:24:55;;;;;;;16.42;5.75;;;;;;;18.17;69.92;100947.00;10206607;28;20122;-63
2022/10/28 22:29:57;;;;;;;17.77;6.15;;;;;;;18.12;70.06;100941.34;10201031;28;20051;-63
2022/10/28 22:34:58;;;;;;;17.70;6.60;;;;;;;18.08;70.38;100942.81;10211765;28;20078;-63
2022/10/28 22:39:59;;;;;;;18.95;5.15;;;;;;;18.11;70.38;100941.56;10205956;28;20258;-63
2022/10/28 22:45:01;;;;;;;13.45;5.40;;;;;;;18.11;70.41;100941.56;10206570;28;20134;-63
2022/10/28 22:50:02;;;;;;;18.90;6.22;;;;;;;18.13;70.41;100948.47;10211262;28;21382;-64
2022/10/28 22:55:04;;;;;;;14.80;6.45;;;;;;;18.11;70.58;100941.56;10219143;28;20112;-63
2022/10/28 23:00:06;;;;;;;17.27;6.63;;;;;;;18.03;70.74;100935.31;10199962;29;20078;-63
2022/10/28 23:05:08;;;;;;;18.90;6.68;;;;;;;17.97;70.96;100933.44;10210807;28;20491;-63
2022/10/28 23:10:09;;;;;;;16.05;6.47;;;;;;;17.97;70.89;100941.59;10210927;28;20055;-63
2022/10/28 23:15:11;;;;;;;24.23;7.72;;;;;;;17.95;70.74;100931.94;10208968;28;20054;-63